• Join FlightAware (Why Join?)
  • Login
  • US Flag 
04:46AM EDT


 

Airport Tracker/Info


-or-


 

Live Flight TrackerFlight Track Log ✈ SWA565 ✈ 17-Apr-2013 ✈ KLAS - KSFO

Flight Track Log - Related Links

Times and Time Zones

All times are in EDT time to prevent confusion due to time zone crossing. See the SWA565 flight status page for this flight to view local times or setup timezone preferences in your user account.

Time Position Orientation Groundspeed Altitude Reporting Facility
EDT Latitude Longitude Course Direction KTS MPH feet Rate Location/Type
01:36AM 36.1167 -115.1467 336° Northwest 176 203 3,500  Level Los Angeles Center
01:36AM 36.1389 -115.1592 336° Northwest 242 278 4,400 2,460 Climbing Los Angeles Center
01:37AM 36.1422 -115.1836 280° West 232 267 5,300 3,120 Climbing Los Angeles Center
01:37AM 36.1206 -115.2372 243° Southwest 268 308 7,600 3,000 Climbing Los Angeles Center
01:38AM 36.0736 -115.3078 231° Southwest 273 314 10,500 2,100 Climbing Los Angeles Center
01:39AM 36.0242 -115.3986 236° Southwest 343 395 11,900 2,160 Climbing Los Angeles Center
01:40AM 35.9989 -115.5194 256° West 357 411 15,000 2,700 Climbing Los Angeles Center
01:41AM 36.0097 -115.6394 276° West 348 400 17,400 2,160 Climbing Los Angeles Center
01:42AM 36.0475 -115.7533 292° West 357 411 19,500 1,980 Climbing Los Angeles Center
01:43AM 36.0864 -115.8697 292° West 368 423 21,500 1,860 Climbing Los Angeles Center
01:45AM 36.1253 -115.9894 292° West 375 432 23,300 1,740 Climbing Los Angeles Center
01:46AM 36.1672 -116.1147 293° West 383 441 25,100 1,380 Climbing Los Angeles Center
01:47AM 36.2069 -116.2392 292° West 388 447 26,200 1,440 Climbing Los Angeles Center
01:48AM 36.2481 -116.3647 292° West 391 450 28,100 1,980 Climbing Los Angeles Center
01:49AM 36.2908 -116.4922 293° West 395 455 30,300 1,860 Climbing Los Angeles Center
01:50AM 36.3292 -116.6136 291° West 392 451 31,900 1,500 Climbing Los Angeles Center
01:51AM 36.3689 -116.7347 292° West 386 444 33,400 1,320 Climbing Los Angeles Center
01:52AM 36.4081 -116.8561 292° West 382 440 34,700 1,260 Climbing Los Angeles Center
01:53AM 36.4464 -116.9778 291° West 381 438 36,000 600 Climbing Los Angeles Center
01:54AM 36.4836 -117.0956 291° West 374 430 36,000  Level Los Angeles Center
01:55AM 36.5306 -117.2408 292° West 377 434 36,000  Level Los Angeles Center
01:56AM 36.5694 -117.3644 291° West 383 441 36,000 -120 Level Los Angeles Center
01:57AM 36.6089 -117.4897 291° West 388 447 35,800 -600 Descending Los Angeles Center
01:58AM 36.6486 -117.6153 292° West 391 450 34,800 -1,140 Descending Los Angeles Center
01:59AM 36.6883 -117.7447 291° West 399 459 33,500 -1,140 Descending Los Angeles Center
02:00AM 36.7281 -117.8728 291° West 398 458 32,600 -780 Descending Los Angeles Center
02:01AM 36.7672 -118.0039 290° West 403 464 32,000 -300 Descending Los Angeles Center
02:02AM 36.8108 -118.1447 291° West 396 456 32,000  Level Los Angeles Center
02:03AM 36.8500 -118.2708 291° West 392 451 32,000  Level Los Angeles Center
02:04AM 36.8831 -118.3897 289° West 378 435 32,000  Level Oakland Center
02:05AM 36.9233 -118.5222 291° West 388 447 32,000  Level Oakland Center
02:06AM 36.9625 -118.6503 291° West 394 453 32,000  Level Oakland Center
02:07AM 37.0006 -118.7769 291° West 392 451 32,000  Level Oakland Center
02:08AM 37.0400 -118.9064 291° West 398 458 32,000  Level Oakland Center
02:09AM 37.0786 -119.0375 290° West 402 463 32,000  Level Oakland Center
02:10AM 37.1169 -119.1664 290° West 401 461 32,000  Level Oakland Center
02:11AM 37.1553 -119.2958 290° West 400 460 32,000  Level Oakland Center
02:12AM 37.1931 -119.4294 290° West 410 472 32,000  Level Oakland Center
02:13AM 37.2311 -119.5589 290° West 408 470 32,000  Level Oakland Center
02:14AM 37.2689 -119.6897 290° West 403 464 32,000  Level Oakland Center
02:15AM 37.3106 -119.8336 290° West 398 458 32,000  Level Oakland Center
02:16AM 37.3489 -119.9689 290° West 407 468 32,000  Level Oakland Center
02:17AM 37.3872 -120.0994 290° West 398 458 32,000  Level Oakland Center
02:18AM 37.4233 -120.2275 290° West 386 444 32,000 -360 Level Oakland Center
02:19AM 37.4606 -120.3556 290° West 388 447 31,300 -1,020 Descending Oakland Center
02:20AM 37.4969 -120.4850 290° West 390 449 30,000 -1,800 Descending Oakland Center
02:21AM 37.5333 -120.6136 290° West 390 449 27,700 -2,340 Descending Oakland Center
02:22AM 37.5692 -120.7431 289° West 389 448 25,400 -1,980 Descending Oakland Center
02:23AM 37.6025 -120.8697 288° West 381 438 23,800 -1,980 Descending Oakland Center
02:24AM 37.6167 -120.9833 279° West 355 409 21,700 -2,940 Descending Northern Cal TRACON
02:25AM 37.6167 -121.1167 270° West 393 452 18,300 -2,460 Descending Northern Cal TRACON
02:26AM 37.6000 -121.2333 260° West 360 414 16,800 -1,800 Descending Northern Cal TRACON
02:27AM 37.5833 -121.3500 260° West 347 399 14,700 -1,980 Descending Northern Cal TRACON
02:28AM 37.5667 -121.4667 260° West 335 386 12,900 -1,800 Descending Northern Cal TRACON
02:29AM 37.5333 -121.5833 250° West 321 369 11,100 -1,320 Descending Northern Cal TRACON
02:30AM 37.5167 -121.6833 258° West 291 335 10,300 -1,200 Descending Northern Cal TRACON
02:31AM 37.5000 -121.7833 258° West 297 342 8,800 -1,200 Descending Northern Cal TRACON
02:32AM 37.4833 -121.8833 258° West 275 316 8,000 -1,140 Descending Northern Cal TRACON
02:33AM 37.5000 -121.9667 284° West 252 290 6,600 -1,380 Descending Northern Cal TRACON
02:34AM 37.5167 -122.0500 284° West 242 278 5,300 -1,260 Descending Northern Cal TRACON
02:35AM 37.5500 -122.1167 302° West 236 272 4,100 -1,260 Descending Northern Cal TRACON
02:36AM 37.5667 -122.2000 284° West 212 244 2,800 -1,200 Descending Northern Cal TRACON
02:37AM 37.5833 -122.2500 293° West 161 185 1,800 -900 Descending Northern Cal TRACON
02:38AM 37.5833 -122.3000 270° West 134 154 1,100 -720 Descending Northern Cal TRACON
02:39AM 37.6000 -122.3333 302° West 137 158 400 -720 Descending Northern Cal TRACON
02:41AM 37.6167 -122.3667 322° Northwest  Level FlightAware Approximate
02:48AM 37.6191 -122.3752 322° Northwest  Level Estimated